sensor_id;sensor_type;location;lat;lon;timestamp;temperature;humidity
19342;DHT22;9807;48.258;12.690;2023-06-10T00:02:21;21.50;99.90
19342;DHT22;9807;48.258;12.690;2023-06-10T00:04:46;21.50;99.90
19342;DHT22;9807;48.258;12.690;2023-06-10T00:07:13;21.50;99.90
19342;DHT22;9807;48.258;12.690;2023-06-10T00:09:39;21.40;99.90
19342;DHT22;9807;48.258;12.690;2023-06-10T00:12:08;21.40;99.90
19342;DHT22;9807;48.258;12.690;2023-06-10T00:14:38;21.40;99.90
19342;DHT22;9807;48.258;12.690;2023-06-10T00:17:05;21.40;99.90
19342;DHT22;9807;48.258;12.690;2023-06-10T00:19:34;21.30;99.90
19342;DHT22;9807;48.258;12.690;2023-06-10T00:22:00;21.30;99.90
19342;DHT22;9807;48.258;12.690;2023-06-10T00:24:26;21.30;99.90
19342;DHT22;9807;48.258;12.690;2023-06-10T00:26:52;21.20;99.90
19342;DHT22;9807;48.258;12.690;2023-06-10T00:29:18;21.20;99.90
19342;DHT22;9807;48.258;12.690;2023-06-10T00:31:45;21.20;99.90
19342;DHT22;9807;48.258;12.690;2023-06-10T00:34:12;21.20;99.90
19342;DHT22;9807;48.258;12.690;2023-06-10T00:36:39;21.20;99.90
19342;DHT22;9807;48.258;12.690;2023-06-10T00:39:04;21.20;99.90
19342;DHT22;9807;48.258;12.690;2023-06-10T00:41:31;21.10;99.90
19342;DHT22;9807;48.258;12.690;2023-06-10T00:43:57;21.10;99.90
19342;DHT22;9807;48.258;12.690;2023-06-10T00:46:25;21.10;99.90
19342;DHT22;9807;48.258;12.690;2023-06-10T00:48:52;21.10;99.90
19342;DHT22;9807;48.258;12.690;2023-06-10T00:51:18;21.00;99.90
19342;DHT22;9807;48.258;12.690;2023-06-10T00:53:44;21.00;99.90
19342;DHT22;9807;48.258;12.690;2023-06-10T00:56:11;21.00;99.90
19342;DHT22;9807;48.258;12.690;2023-06-10T00:58:37;21.00;99.90
19342;DHT22;9807;48.258;12.690;2023-06-10T01:01:03;21.00;99.90
19342;DHT22;9807;48.258;12.690;2023-06-10T01:03:29;21.00;99.90
19342;DHT22;9807;48.258;12.690;2023-06-10T01:11:36;20.90;99.90
19342;DHT22;9807;48.258;12.690;2023-06-10T01:14:07;20.90;99.90
19342;DHT22;9807;48.258;12.690;2023-06-10T01:16:35;20.80;99.90
19342;DHT22;9807;48.258;12.690;2023-06-10T01:19:02;20.80;99.90
19342;DHT22;9807;48.258;12.690;2023-06-10T01:21:28;20.80;99.90
19342;DHT22;9807;48.258;12.690;2023-06-10T01:23:54;20.80;99.90
19342;DHT22;9807;48.258;12.690;2023-06-10T01:26:26;20.70;99.90
19342;DHT22;9807;48.258;12.690;2023-06-10T01:29:14;20.70;99.90
19342;DHT22;9807;48.258;12.690;2023-06-10T01:31:45;20.70;99.90
19342;DHT22;9807;48.258;12.690;2023-06-10T01:34:17;20.60;99.90
19342;DHT22;9807;48.258;12.690;2023-06-10T01:36:45;20.60;99.90
19342;DHT22;9807;48.258;12.690;2023-06-10T01:39:16;20.60;99.90
19342;DHT22;9807;48.258;12.690;2023-06-10T01:41:42;20.60;99.90
19342;DHT22;9807;48.258;12.690;2023-06-10T01:44:09;20.60;99.90
19342;DHT22;9807;48.258;12.690;2023-06-10T01:46:34;20.60;99.90
19342;DHT22;9807;48.258;12.690;2023-06-10T01:49:00;20.40;99.90
19342;DHT22;9807;48.258;12.690;2023-06-10T01:51:26;20.40;99.90
19342;DHT22;9807;48.258;12.690;2023-06-10T01:53:52;20.40;99.90
19342;DHT22;9807;48.258;12.690;2023-06-10T01:56:17;20.40;99.90
19342;DHT22;9807;48.258;12.690;2023-06-10T01:58:46;20.40;99.90
19342;DHT22;9807;48.258;12.690;2023-06-10T02:01:12;20.40;99.90
19342;DHT22;9807;48.258;12.690;2023-06-10T02:03:41;20.40;99.90
19342;DHT22;9807;48.258;12.690;2023-06-10T02:06:06;20.40;99.90
19342;DHT22;9807;48.258;12.690;2023-06-10T02:08:32;20.40;99.90
19342;DHT22;9807;48.258;12.690;2023-06-10T02:11:01;20.30;99.90
19342;DHT22;9807;48.258;12.690;2023-06-10T02:13:26;20.40;99.90
19342;DHT22;9807;48.258;12.690;2023-06-10T02:15:52;20.30;99.90
19342;DHT22;9807;48.258;12.690;2023-06-10T02:18:19;20.30;99.90
19342;DHT22;9807;48.258;12.690;2023-06-10T02:20:46;20.30;99.90
19342;DHT22;9807;48.258;12.690;2023-06-10T02:23:12;20.30;99.90
19342;DHT22;9807;48.258;12.690;2023-06-10T02:25:37;20.30;99.90
19342;DHT22;9807;48.258;12.690;2023-06-10T02:28:03;20.30;99.90
19342;DHT22;9807;48.258;12.690;2023-06-10T02:30:32;20.20;99.90
19342;DHT22;9807;48.258;12.690;2023-06-10T02:33:01;19.70;99.90
19342;DHT22;9807;48.258;12.690;2023-06-10T02:35:27;19.70;99.90
19342;DHT22;9807;48.258;12.690;2023-06-10T02:37:52;19.70;99.90
19342;DHT22;9807;48.258;12.690;2023-06-10T02:40:18;19.80;99.90
19342;DHT22;9807;48.258;12.690;2023-06-10T02:42:44;19.80;99.90
19342;DHT22;9807;48.258;12.690;2023-06-10T02:45:09;19.80;99.90
19342;DHT22;9807;48.258;12.690;2023-06-10T02:47:37;19.90;99.90
19342;DHT22;9807;48.258;12.690;2023-06-10T02:50:05;19.90;99.90
19342;DHT22;9807;48.258;12.690;2023-06-10T02:52:31;19.90;99.90
19342;DHT22;9807;48.258;12.690;2023-06-10T02:54:59;20.00;99.90
19342;DHT22;9807;48.258;12.690;2023-06-10T02:57:25;20.00;99.90
19342;DHT22;9807;48.258;12.690;2023-06-10T02:59:51;20.00;99.90
19342;DHT22;9807;48.258;12.690;2023-06-10T03:02:19;20.00;99.90
19342;DHT22;9807;48.258;12.690;2023-06-10T03:04:45;20.00;99.90
19342;DHT22;9807;48.258;12.690;2023-06-10T03:07:11;20.00;99.90
19342;DHT22;9807;48.258;12.690;2023-06-10T03:09:37;20.00;99.90
19342;DHT22;9807;48.258;12.690;2023-06-10T03:12:03;20.00;99.90
19342;DHT22;9807;48.258;12.690;2023-06-10T03:14:28;19.90;99.90
19342;DHT22;9807;48.258;12.690;2023-06-10T03:16:54;19.90;99.90
19342;DHT22;9807;48.258;12.690;2023-06-10T03:19:20;19.90;99.90
19342;DHT22;9807;48.258;12.690;2023-06-10T03:22:06;19.90;99.90
19342;DHT22;9807;48.258;12.690;2023-06-10T03:24:32;19.90;99.90
19342;DHT22;9807;48.258;12.690;2023-06-10T03:26:58;19.90;99.90
19342;DHT22;9807;48.258;12.690;2023-06-10T03:29:24;20.00;99.90
19342;DHT22;9807;48.258;12.690;2023-06-10T03:31:50;20.00;99.90
19342;DHT22;9807;48.258;12.690;2023-06-10T03:34:15;20.00;99.90
19342;DHT22;9807;48.258;12.690;2023-06-10T03:36:41;19.90;99.90
19342;DHT22;9807;48.258;12.690;2023-06-10T03:39:08;19.90;99.90
19342;DHT22;9807;48.258;12.690;2023-06-10T03:41:35;19.90;99.90
19342;DHT22;9807;48.258;12.690;2023-06-10T03:44:00;19.90;99.90
19342;DHT22;9807;48.258;12.690;2023-06-10T03:46:26;19.90;99.90
19342;DHT22;9807;48.258;12.690;2023-06-10T03:48:52;19.90;99.90
19342;DHT22;9807;48.258;12.690;2023-06-10T03:51:17;19.90;99.90
19342;DHT22;9807;48.258;12.690;2023-06-10T03:53:43;19.90;99.90
19342;DHT22;9807;48.258;12.690;2023-06-10T03:56:09;19.80;99.90
19342;DHT22;9807;48.258;12.690;2023-06-10T03:58:34;19.80;99.90
19342;DHT22;9807;48.258;12.690;2023-06-10T04:01:00;19.80;99.90
19342;DHT22;9807;48.258;12.690;2023-06-10T04:03:26;19.90;99.90
19342;DHT22;9807;48.258;12.690;2023-06-10T04:05:52;19.80;99.90
19342;DHT22;9807;48.258;12.690;2023-06-10T04:08:18;19.80;99.90
19342;DHT22;9807;48.258;12.690;2023-06-10T04:10:44;19.80;99.90
19342;DHT22;9807;48.258;12.690;2023-06-10T04:13:09;19.80;99.90
19342;DHT22;9807;48.258;12.690;2023-06-10T04:15:35;19.80;99.90
19342;DHT22;9807;48.258;12.690;2023-06-10T04:18:01;19.80;99.90
19342;DHT22;9807;48.258;12.690;2023-06-10T04:20:27;19.80;99.90
19342;DHT22;9807;48.258;12.690;2023-06-10T04:23:01;19.80;99.90
19342;DHT22;9807;48.258;12.690;2023-06-10T04:25:26;19.80;99.90
19342;DHT22;9807;48.258;12.690;2023-06-10T04:27:54;19.80;99.90
19342;DHT22;9807;48.258;12.690;2023-06-10T04:30:20;19.90;99.90
19342;DHT22;9807;48.258;12.690;2023-06-10T04:32:45;19.90;99.90
19342;DHT22;9807;48.258;12.690;2023-06-10T04:35:12;19.90;99.90
19342;DHT22;9807;48.258;12.690;2023-06-10T04:37:39;20.00;99.90
19342;DHT22;9807;48.258;12.690;2023-06-10T04:40:07;20.00;99.90
19342;DHT22;9807;48.258;12.690;2023-06-10T04:42:33;20.00;99.90
19342;DHT22;9807;48.258;12.690;2023-06-10T04:44:59;20.00;99.90
19342;DHT22;9807;48.258;12.690;2023-06-10T04:47:26;20.00;99.90
19342;DHT22;9807;48.258;12.690;2023-06-10T04:49:52;20.10;99.90
19342;DHT22;9807;48.258;12.690;2023-06-10T04:52:17;20.10;99.90
19342;DHT22;9807;48.258;12.690;2023-06-10T04:54:43;20.10;99.90
19342;DHT22;9807;48.258;12.690;2023-06-10T04:57:09;20.20;99.90
19342;DHT22;9807;48.258;12.690;2023-06-10T04:59:37;20.20;99.90
19342;DHT22;9807;48.258;12.690;2023-06-10T05:02:04;20.20;99.90
19342;DHT22;9807;48.258;12.690;2023-06-10T05:04:30;20.30;99.90
19342;DHT22;9807;48.258;12.690;2023-06-10T05:06:56;20.30;99.90
19342;DHT22;9807;48.258;12.690;2023-06-10T05:09:22;20.30;99.90
19342;DHT22;9807;48.258;12.690;2023-06-10T05:11:47;20.40;99.90
19342;DHT22;9807;48.258;12.690;2023-06-10T05:14:16;20.40;99.90
19342;DHT22;9807;48.258;12.690;2023-06-10T05:16:43;20.50;99.90
19342;DHT22;9807;48.258;12.690;2023-06-10T05:19:08;20.50;99.90
19342;DHT22;9807;48.258;12.690;2023-06-10T05:21:34;20.60;99.90
19342;DHT22;9807;48.258;12.690;2023-06-10T05:24:00;20.60;99.90
19342;DHT22;9807;48.258;12.690;2023-06-10T05:26:26;20.50;99.90
19342;DHT22;9807;48.258;12.690;2023-06-10T05:28:51;20.50;99.90
19342;DHT22;9807;48.258;12.690;2023-06-10T05:31:18;20.50;99.90
19342;DHT22;9807;48.258;12.690;2023-06-10T05:33:43;20.70;99.90
19342;DHT22;9807;48.258;12.690;2023-06-10T05:36:09;20.90;99.90
19342;DHT22;9807;48.258;12.690;2023-06-10T05:38:35;21.00;99.90
19342;DHT22;9807;48.258;12.690;2023-06-10T05:41:00;21.20;99.90
19342;DHT22;9807;48.258;12.690;2023-06-10T05:43:26;21.40;99.90
19342;DHT22;9807;48.258;12.690;2023-06-10T05:45:52;21.60;99.90
19342;DHT22;9807;48.258;12.690;2023-06-10T05:48:18;21.80;99.90
19342;DHT22;9807;48.258;12.690;2023-06-10T05:50:45;22.10;99.90
19342;DHT22;9807;48.258;12.690;2023-06-10T05:53:14;22.20;99.90
19342;DHT22;9807;48.258;12.690;2023-06-10T05:55:45;22.40;99.90
19342;DHT22;9807;48.258;12.690;2023-06-10T05:58:12;22.60;99.90
19342;DHT22;9807;48.258;12.690;2023-06-10T06:00:39;22.70;99.90
19342;DHT22;9807;48.258;12.690;2023-06-10T06:03:07;22.70;99.90
19342;DHT22;9807;48.258;12.690;2023-06-10T06:05:34;22.90;99.90
19342;DHT22;9807;48.258;12.690;2023-06-10T06:08:04;23.00;99.90
19342;DHT22;9807;48.258;12.690;2023-06-10T06:10:30;23.10;99.90
19342;DHT22;9807;48.258;12.690;2023-06-10T06:12:56;23.20;99.90
19342;DHT22;9807;48.258;12.690;2023-06-10T06:15:22;23.30;99.90
19342;DHT22;9807;48.258;12.690;2023-06-10T06:17:48;23.50;99.90
19342;DHT22;9807;48.258;12.690;2023-06-10T06:20:14;23.60;99.90
19342;DHT22;9807;48.258;12.690;2023-06-10T06:22:39;23.80;99.90
19342;DHT22;9807;48.258;12.690;2023-06-10T06:25:06;24.00;99.90
19342;DHT22;9807;48.258;12.690;2023-06-10T06:27:31;24.20;99.90
19342;DHT22;9807;48.258;12.690;2023-06-10T06:30:01;24.10;99.90
19342;DHT22;9807;48.258;12.690;2023-06-10T06:32:27;24.10;99.90
19342;DHT22;9807;48.258;12.690;2023-06-10T06:34:53;24.00;99.90
19342;DHT22;9807;48.258;12.690;2023-06-10T06:37:23;23.80;99.90
19342;DHT22;9807;48.258;12.690;2023-06-10T06:39:53;24.00;99.90
19342;DHT22;9807;48.258;12.690;2023-06-10T06:42:20;24.10;99.90
19342;DHT22;9807;48.258;12.690;2023-06-10T06:44:46;24.30;99.90
19342;DHT22;9807;48.258;12.690;2023-06-10T06:47:18;24.30;99.90
19342;DHT22;9807;48.258;12.690;2023-06-10T06:49:48;24.40;99.90
19342;DHT22;9807;48.258;12.690;2023-06-10T06:52:14;24.40;99.90
19342;DHT22;9807;48.258;12.690;2023-06-10T06:54:40;23.90;99.90
19342;DHT22;9807;48.258;12.690;2023-06-10T06:57:06;24.20;99.90
19342;DHT22;9807;48.258;12.690;2023-06-10T06:59:32;24.30;99.90
19342;DHT22;9807;48.258;12.690;2023-06-10T07:02:02;24.10;99.90
19342;DHT22;9807;48.258;12.690;2023-06-10T07:04:31;24.10;99.90
19342;DHT22;9807;48.258;12.690;2023-06-10T07:07:00;24.50;99.90
19342;DHT22;9807;48.258;12.690;2023-06-10T07:09:31;24.70;99.90
19342;DHT22;9807;48.258;12.690;2023-06-10T07:12:03;24.90;99.90
19342;DHT22;9807;48.258;12.690;2023-06-10T07:14:32;24.80;99.90
19342;DHT22;9807;48.258;12.690;2023-06-10T07:16:59;24.90;99.90
19342;DHT22;9807;48.258;12.690;2023-06-10T07:19:25;25.00;99.90
19342;DHT22;9807;48.258;12.690;2023-06-10T07:21:50;24.60;99.90
19342;DHT22;9807;48.258;12.690;2023-06-10T07:24:16;25.20;99.90
19342;DHT22;9807;48.258;12.690;2023-06-10T07:26:42;25.10;99.90
19342;DHT22;9807;48.258;12.690;2023-06-10T07:29:07;25.10;99.90
19342;DHT22;9807;48.258;12.690;2023-06-10T07:31:33;25.70;99.90
19342;DHT22;9807;48.258;12.690;2023-06-10T07:33:59;26.30;99.90
19342;DHT22;9807;48.258;12.690;2023-06-10T07:36:24;26.10;99.90
19342;DHT22;9807;48.258;12.690;2023-06-10T07:38:53;25.90;99.90
19342;DHT22;9807;48.258;12.690;2023-06-10T07:41:19;25.70;99.90
19342;DHT22;9807;48.258;12.690;2023-06-10T07:43:45;24.80;99.90
19342;DHT22;9807;48.258;12.690;2023-06-10T07:46:10;25.40;99.90
19342;DHT22;9807;48.258;12.690;2023-06-10T07:48:36;26.30;99.90
19342;DHT22;9807;48.258;12.690;2023-06-10T07:51:02;27.20;99.90
19342;DHT22;9807;48.258;12.690;2023-06-10T07:53:27;27.80;99.90
19342;DHT22;9807;48.258;12.690;2023-06-10T07:55:53;28.10;99.90
19342;DHT22;9807;48.258;12.690;2023-06-10T07:58:19;28.10;99.90
19342;DHT22;9807;48.258;12.690;2023-06-10T08:00:45;26.90;99.90
19342;DHT22;9807;48.258;12.690;2023-06-10T08:03:11;27.60;99.90
19342;DHT22;9807;48.258;12.690;2023-06-10T08:05:37;28.10;99.90
19342;DHT22;9807;48.258;12.690;2023-06-10T08:08:03;28.70;99.90
19342;DHT22;9807;48.258;12.690;2023-06-10T08:10:29;28.60;99.90
19342;DHT22;9807;48.258;12.690;2023-06-10T08:12:55;28.30;99.90
19342;DHT22;9807;48.258;12.690;2023-06-10T08:15:21;28.10;99.90
19342;DHT22;9807;48.258;12.690;2023-06-10T08:17:47;27.30;99.90
19342;DHT22;9807;48.258;12.690;2023-06-10T08:20:12;27.20;99.90
19342;DHT22;9807;48.258;12.690;2023-06-10T08:22:38;27.20;99.90
19342;DHT22;9807;48.258;12.690;2023-06-10T08:25:04;27.60;99.90
19342;DHT22;9807;48.258;12.690;2023-06-10T08:27:33;27.90;99.90
19342;DHT22;9807;48.258;12.690;2023-06-10T08:29:59;27.70;99.90
19342;DHT22;9807;48.258;12.690;2023-06-10T08:32:26;27.80;99.90
19342;DHT22;9807;48.258;12.690;2023-06-10T08:34:52;27.70;99.90
19342;DHT22;9807;48.258;12.690;2023-06-10T08:37:17;28.40;99.90
19342;DHT22;9807;48.258;12.690;2023-06-10T08:39:43;28.20;99.90
19342;DHT22;9807;48.258;12.690;2023-06-10T08:42:22;28.30;99.90
19342;DHT22;9807;48.258;12.690;2023-06-10T08:44:54;28.70;99.90
19342;DHT22;9807;48.258;12.690;2023-06-10T08:47:25;28.50;99.90
19342;DHT22;9807;48.258;12.690;2023-06-10T08:49:53;28.20;99.90
19342;DHT22;9807;48.258;12.690;2023-06-10T08:52:22;29.00;99.90
19342;DHT22;9807;48.258;12.690;2023-06-10T08:55:03;30.00;99.90
19342;DHT22;9807;48.258;12.690;2023-06-10T08:57:30;30.60;99.90
19342;DHT22;9807;48.258;12.690;2023-06-10T08:59:57;31.20;99.90
19342;DHT22;9807;48.258;12.690;2023-06-10T09:02:27;31.40;99.90
19342;DHT22;9807;48.258;12.690;2023-06-10T09:04:53;31.70;99.90
19342;DHT22;9807;48.258;12.690;2023-06-10T09:07:19;30.50;99.90
19342;DHT22;9807;48.258;12.690;2023-06-10T09:09:45;29.50;99.90
19342;DHT22;9807;48.258;12.690;2023-06-10T09:12:14;29.70;99.90
19342;DHT22;9807;48.258;12.690;2023-06-10T09:14:41;29.90;99.90
19342;DHT22;9807;48.258;12.690;2023-06-10T09:17:07;29.70;99.90
19342;DHT22;9807;48.258;12.690;2023-06-10T09:19:33;29.20;99.90
19342;DHT22;9807;48.258;12.690;2023-06-10T09:22:00;29.70;99.90
19342;DHT22;9807;48.258;12.690;2023-06-10T09:24:25;30.30;99.90
19342;DHT22;9807;48.258;12.690;2023-06-10T09:27:05;30.80;99.90
19342;DHT22;9807;48.258;12.690;2023-06-10T09:29:44;31.10;99.90
19342;DHT22;9807;48.258;12.690;2023-06-10T09:32:10;31.20;99.90
19342;DHT22;9807;48.258;12.690;2023-06-10T09:34:36;30.80;99.90
19342;DHT22;9807;48.258;12.690;2023-06-10T09:37:02;30.80;99.90
19342;DHT22;9807;48.258;12.690;2023-06-10T09:39:28;31.00;99.90
19342;DHT22;9807;48.258;12.690;2023-06-10T09:41:54;29.80;99.90
19342;DHT22;9807;48.258;12.690;2023-06-10T09:44:21;29.00;99.90
19342;DHT22;9807;48.258;12.690;2023-06-10T09:46:49;29.20;99.90
19342;DHT22;9807;48.258;12.690;2023-06-10T09:49:16;29.40;99.90
19342;DHT22;9807;48.258;12.690;2023-06-10T09:51:53;28.40;99.90
19342;DHT22;9807;48.258;12.690;2023-06-10T09:54:20;28.50;99.90
19342;DHT22;9807;48.258;12.690;2023-06-10T09:56:50;29.00;99.90
19342;DHT22;9807;48.258;12.690;2023-06-10T09:59:28;28.00;99.90
19342;DHT22;9807;48.258;12.690;2023-06-10T10:01:55;26.80;99.90
19342;DHT22;9807;48.258;12.690;2023-06-10T10:04:26;25.80;99.90
19342;DHT22;9807;48.258;12.690;2023-06-10T10:06:52;24.70;99.90
19342;DHT22;9807;48.258;12.690;2023-06-10T10:09:18;24.40;99.90
19342;DHT22;9807;48.258;12.690;2023-06-10T10:11:44;24.60;99.90
19342;DHT22;9807;48.258;12.690;2023-06-10T10:14:12;24.40;99.90
19342;DHT22;9807;48.258;12.690;2023-06-10T10:16:41;24.50;99.90
19342;DHT22;9807;48.258;12.690;2023-06-10T10:19:11;25.00;99.90
19342;DHT22;9807;48.258;12.690;2023-06-10T10:21:47;25.90;99.90
19342;DHT22;9807;48.258;12.690;2023-06-10T10:24:21;26.80;99.90
19342;DHT22;9807;48.258;12.690;2023-06-10T10:26:49;27.40;99.90
19342;DHT22;9807;48.258;12.690;2023-06-10T10:32:01;28.00;99.90
19342;DHT22;9807;48.258;12.690;2023-06-10T10:34:56;28.20;99.90
19342;DHT22;9807;48.258;12.690;2023-06-10T10:37:26;27.40;99.90
19342;DHT22;9807;48.258;12.690;2023-06-10T10:39:52;26.40;99.90
19342;DHT22;9807;48.258;12.690;2023-06-10T10:42:18;25.90;99.90
19342;DHT22;9807;48.258;12.690;2023-06-10T10:44:44;25.40;99.90
19342;DHT22;9807;48.258;12.690;2023-06-10T10:47:11;25.20;99.90
19342;DHT22;9807;48.258;12.690;2023-06-10T10:49:38;25.00;99.90
19342;DHT22;9807;48.258;12.690;2023-06-10T10:52:04;25.30;99.90
19342;DHT22;9807;48.258;12.690;2023-06-10T10:54:36;25.90;99.90
19342;DHT22;9807;48.258;12.690;2023-06-10T10:57:18;26.50;99.90
19342;DHT22;9807;48.258;12.690;2023-06-10T11:00:00;26.70;99.90
19342;DHT22;9807;48.258;12.690;2023-06-10T11:02:40;26.20;99.90
19342;DHT22;9807;48.258;12.690;2023-06-10T11:05:07;26.60;99.90
19342;DHT22;9807;48.258;12.690;2023-06-10T11:07:34;25.80;99.90
19342;DHT22;9807;48.258;12.690;2023-06-10T11:10:00;25.30;99.90
19342;DHT22;9807;48.258;12.690;2023-06-10T11:12:41;25.40;99.90
19342;DHT22;9807;48.258;12.690;2023-06-10T11:15:07;25.70;99.90
19342;DHT22;9807;48.258;12.690;2023-06-10T11:17:33;25.90;99.90
19342;DHT22;9807;48.258;12.690;2023-06-10T11:19:59;25.70;99.90
19342;DHT22;9807;48.258;12.690;2023-06-10T11:22:25;25.20;99.90
19342;DHT22;9807;48.258;12.690;2023-06-10T11:24:51;25.30;99.90
19342;DHT22;9807;48.258;12.690;2023-06-10T11:27:21;25.60;99.90
19342;DHT22;9807;48.258;12.690;2023-06-10T11:32:35;26.10;99.90
19342;DHT22;9807;48.258;12.690;2023-06-10T11:35:04;26.50;99.90
19342;DHT22;9807;48.258;12.690;2023-06-10T11:37:30;27.00;99.90
19342;DHT22;9807;48.258;12.690;2023-06-10T11:39:56;27.20;99.90
19342;DHT22;9807;48.258;12.690;2023-06-10T11:42:25;27.20;99.90
19342;DHT22;9807;48.258;12.690;2023-06-10T11:44:52;26.60;99.90
19342;DHT22;9807;48.258;12.690;2023-06-10T11:47:19;26.00;99.90
19342;DHT22;9807;48.258;12.690;2023-06-10T11:49:46;25.40;99.90
19342;DHT22;9807;48.258;12.690;2023-06-10T11:52:30;25.40;99.90
19342;DHT22;9807;48.258;12.690;2023-06-10T11:54:58;25.50;99.90
19342;DHT22;9807;48.258;12.690;2023-06-10T11:57:24;25.60;99.90
19342;DHT22;9807;48.258;12.690;2023-06-10T11:59:50;25.10;99.90
19342;DHT22;9807;48.258;12.690;2023-06-10T12:02:16;24.80;99.90
19342;DHT22;9807;48.258;12.690;2023-06-10T12:04:42;25.10;99.90
19342;DHT22;9807;48.258;12.690;2023-06-10T12:07:08;25.50;99.90
19342;DHT22;9807;48.258;12.690;2023-06-10T12:09:34;25.40;99.90
19342;DHT22;9807;48.258;12.690;2023-06-10T12:12:01;25.70;99.90
19342;DHT22;9807;48.258;12.690;2023-06-10T12:14:57;25.50;99.90
19342;DHT22;9807;48.258;12.690;2023-06-10T12:20:05;26.10;99.90
19342;DHT22;9807;48.258;12.690;2023-06-10T12:22:42;26.20;99.90
19342;DHT22;9807;48.258;12.690;2023-06-10T12:25:09;26.50;99.90
19342;DHT22;9807;48.258;12.690;2023-06-10T12:27:36;26.70;99.90
19342;DHT22;9807;48.258;12.690;2023-06-10T12:30:04;26.80;99.90
19342;DHT22;9807;48.258;12.690;2023-06-10T12:32:45;27.00;99.90
19342;DHT22;9807;48.258;12.690;2023-06-10T12:35:13;27.10;99.90
19342;DHT22;9807;48.258;12.690;2023-06-10T12:37:40;27.00;99.90
19342;DHT22;9807;48.258;12.690;2023-06-10T12:40:06;26.90;99.90
19342;DHT22;9807;48.258;12.690;2023-06-10T12:42:35;26.70;99.90
19342;DHT22;9807;48.258;12.690;2023-06-10T12:45:01;26.80;99.90
19342;DHT22;9807;48.258;12.690;2023-06-10T12:47:34;27.00;99.90
19342;DHT22;9807;48.258;12.690;2023-06-10T12:50:01;27.10;99.90
19342;DHT22;9807;48.258;12.690;2023-06-10T12:52:28;27.00;99.90
19342;DHT22;9807;48.258;12.690;2023-06-10T12:54:55;27.10;99.90
19342;DHT22;9807;48.258;12.690;2023-06-10T12:57:22;27.00;99.90
19342;DHT22;9807;48.258;12.690;2023-06-10T12:59:48;27.10;99.90
19342;DHT22;9807;48.258;12.690;2023-06-10T13:02:21;26.90;99.90
19342;DHT22;9807;48.258;12.690;2023-06-10T13:04:49;26.90;99.90
19342;DHT22;9807;48.258;12.690;2023-06-10T13:07:15;26.90;99.90
19342;DHT22;9807;48.258;12.690;2023-06-10T13:09:42;26.90;99.90
19342;DHT22;9807;48.258;12.690;2023-06-10T13:12:08;27.00;99.90
19342;DHT22;9807;48.258;12.690;2023-06-10T13:14:35;27.00;99.90
19342;DHT22;9807;48.258;12.690;2023-06-10T13:17:05;27.10;99.90
19342;DHT22;9807;48.258;12.690;2023-06-10T13:19:32;27.20;99.90
19342;DHT22;9807;48.258;12.690;2023-06-10T13:21:59;27.10;99.90
19342;DHT22;9807;48.258;12.690;2023-06-10T13:24:25;27.00;99.90
19342;DHT22;9807;48.258;12.690;2023-06-10T13:26:51;27.00;99.90
19342;DHT22;9807;48.258;12.690;2023-06-10T13:29:20;27.10;99.90
19342;DHT22;9807;48.258;12.690;2023-06-10T13:31:46;27.20;99.90
19342;DHT22;9807;48.258;12.690;2023-06-10T13:34:12;27.20;99.90
19342;DHT22;9807;48.258;12.690;2023-06-10T13:36:37;27.30;99.90
19342;DHT22;9807;48.258;12.690;2023-06-10T13:39:03;27.40;99.90
19342;DHT22;9807;48.258;12.690;2023-06-10T13:41:31;27.40;99.90
19342;DHT22;9807;48.258;12.690;2023-06-10T13:44:03;27.20;99.90
19342;DHT22;9807;48.258;12.690;2023-06-10T13:46:30;27.20;99.90
19342;DHT22;9807;48.258;12.690;2023-06-10T13:48:55;27.20;99.90
19342;DHT22;9807;48.258;12.690;2023-06-10T13:51:21;27.30;99.90
19342;DHT22;9807;48.258;12.690;2023-06-10T13:53:47;27.20;99.90
19342;DHT22;9807;48.258;12.690;2023-06-10T13:56:13;27.20;99.90
19342;DHT22;9807;48.258;12.690;2023-06-10T13:58:39;27.20;99.90
19342;DHT22;9807;48.258;12.690;2023-06-10T14:01:06;27.30;99.90
19342;DHT22;9807;48.258;12.690;2023-06-10T14:03:33;27.30;99.90
19342;DHT22;9807;48.258;12.690;2023-06-10T14:05:59;27.30;99.90
19342;DHT22;9807;48.258;12.690;2023-06-10T14:08:24;27.30;99.90
19342;DHT22;9807;48.258;12.690;2023-06-10T14:10:52;27.20;99.90
19342;DHT22;9807;48.258;12.690;2023-06-10T14:13:18;27.20;99.90
19342;DHT22;9807;48.258;12.690;2023-06-10T14:15:44;27.20;99.90
19342;DHT22;9807;48.258;12.690;2023-06-10T14:18:10;27.30;99.90
19342;DHT22;9807;48.258;12.690;2023-06-10T14:20:36;27.20;99.90
19342;DHT22;9807;48.258;12.690;2023-06-10T14:23:02;27.20;99.90
19342;DHT22;9807;48.258;12.690;2023-06-10T14:25:28;27.10;99.90
19342;DHT22;9807;48.258;12.690;2023-06-10T14:27:53;27.20;99.90
19342;DHT22;9807;48.258;12.690;2023-06-10T14:30:19;27.20;99.90
19342;DHT22;9807;48.258;12.690;2023-06-10T14:32:45;27.30;99.90
19342;DHT22;9807;48.258;12.690;2023-06-10T14:35:10;27.30;99.90
19342;DHT22;9807;48.258;12.690;2023-06-10T14:37:36;27.30;99.90
19342;DHT22;9807;48.258;12.690;2023-06-10T14:40:04;27.40;99.90
19342;DHT22;9807;48.258;12.690;2023-06-10T14:42:33;27.40;99.90
19342;DHT22;9807;48.258;12.690;2023-06-10T14:44:59;27.50;99.90
19342;DHT22;9807;48.258;12.690;2023-06-10T14:47:24;27.40;99.90
19342;DHT22;9807;48.258;12.690;2023-06-10T14:49:50;27.50;99.90
19342;DHT22;9807;48.258;12.690;2023-06-10T14:52:16;27.40;99.90
19342;DHT22;9807;48.258;12.690;2023-06-10T14:54:42;27.30;99.90
19342;DHT22;9807;48.258;12.690;2023-06-10T14:57:07;27.30;99.90
19342;DHT22;9807;48.258;12.690;2023-06-10T14:59:34;27.30;99.90
19342;DHT22;9807;48.258;12.690;2023-06-10T15:02:03;27.20;99.90
19342;DHT22;9807;48.258;12.690;2023-06-10T15:04:28;27.30;99.90
19342;DHT22;9807;48.258;12.690;2023-06-10T15:06:54;27.40;99.90
19342;DHT22;9807;48.258;12.690;2023-06-10T15:09:20;27.40;99.90
19342;DHT22;9807;48.258;12.690;2023-06-10T15:11:46;27.50;99.90
19342;DHT22;9807;48.258;12.690;2023-06-10T15:14:11;27.50;99.90
19342;DHT22;9807;48.258;12.690;2023-06-10T15:16:37;27.60;99.90
19342;DHT22;9807;48.258;12.690;2023-06-10T15:19:03;27.70;99.90
19342;DHT22;9807;48.258;12.690;2023-06-10T15:21:31;27.70;99.90
19342;DHT22;9807;48.258;12.690;2023-06-10T15:23:58;27.70;99.90
19342;DHT22;9807;48.258;12.690;2023-06-10T15:26:24;27.60;99.90
19342;DHT22;9807;48.258;12.690;2023-06-10T15:28:49;27.50;99.90
19342;DHT22;9807;48.258;12.690;2023-06-10T15:31:15;27.40;99.90
19342;DHT22;9807;48.258;12.690;2023-06-10T15:33:41;27.50;99.90
19342;DHT22;9807;48.258;12.690;2023-06-10T15:36:07;27.30;99.90
19342;DHT22;9807;48.258;12.690;2023-06-10T15:38:33;27.30;99.90
19342;DHT22;9807;48.258;12.690;2023-06-10T15:40:59;27.30;99.90
19342;DHT22;9807;48.258;12.690;2023-06-10T15:43:25;27.40;99.90
19342;DHT22;9807;48.258;12.690;2023-06-10T15:45:51;26.90;99.90